sensor_id;sensor_type;location;lat;lon;timestamp;P1;durP1;ratioP1;P2;durP2;ratioP2
35552;SDS011;21656;46.054;13.614;2023-02-17T07:13:08;53.08;;;27.35;;
35552;SDS011;21656;46.054;13.614;2023-02-17T07:15:33;57.75;;;28.33;;
35552;SDS011;21656;46.054;13.614;2023-02-17T07:18:00;57.50;;;28.60;;
35552;SDS011;21656;46.054;13.614;2023-02-17T07:20:26;55.90;;;29.50;;
35552;SDS011;21656;46.054;13.614;2023-02-17T07:22:51;66.32;;;33.95;;
35552;SDS011;21656;46.054;13.614;2023-02-17T07:25:17;57.35;;;30.17;;
35552;SDS011;21656;46.054;13.614;2023-02-17T07:27:42;55.05;;;27.70;;
35552;SDS011;21656;46.054;13.614;2023-02-17T07:30:07;55.05;;;28.90;;
35552;SDS011;21656;46.054;13.614;2023-02-17T07:32:33;58.25;;;29.50;;
35552;SDS011;21656;46.054;13.614;2023-02-17T07:34:59;60.00;;;29.45;;
35552;SDS011;21656;46.054;13.614;2023-02-17T07:37:25;60.15;;;32.03;;
35552;SDS011;21656;46.054;13.614;2023-02-17T07:39:50;58.85;;;30.35;;
35552;SDS011;21656;46.054;13.614;2023-02-17T07:42:16;51.00;;;26.20;;
35552;SDS011;21656;46.054;13.614;2023-02-17T07:44:42;47.53;;;26.27;;
35552;SDS011;21656;46.054;13.614;2023-02-17T07:47:07;55.40;;;29.60;;
35552;SDS011;21656;46.054;13.614;2023-02-17T07:49:32;60.80;;;30.02;;
35552;SDS011;21656;46.054;13.614;2023-02-17T07:51:58;73.40;;;37.10;;
35552;SDS011;21656;46.054;13.614;2023-02-17T07:54:23;81.70;;;40.10;;
35552;SDS011;21656;46.054;13.614;2023-02-17T07:56:49;77.35;;;41.35;;
35552;SDS011;21656;46.054;13.614;2023-02-17T07:59:14;81.95;;;42.53;;
35552;SDS011;21656;46.054;13.614;2023-02-17T08:01:40;94.40;;;46.10;;
35552;SDS011;21656;46.054;13.614;2023-02-17T08:04:07;92.90;;;45.72;;
35552;SDS011;21656;46.054;13.614;2023-02-17T08:06:32;87.32;;;43.05;;
35552;SDS011;21656;46.054;13.614;2023-02-17T08:08:58;86.35;;;44.00;;
35552;SDS011;21656;46.054;13.614;2023-02-17T08:11:42;90.78;;;42.85;;
35552;SDS011;21656;46.054;13.614;2023-02-17T08:14:28;95.40;;;45.00;;
35552;SDS011;21656;46.054;13.614;2023-02-17T08:16:55;83.13;;;42.28;;
35552;SDS011;21656;46.054;13.614;2023-02-17T08:19:21;87.63;;;43.78;;
35552;SDS011;21656;46.054;13.614;2023-02-17T08:21:47;85.55;;;42.75;;
35552;SDS011;21656;46.054;13.614;2023-02-17T08:24:12;87.18;;;43.60;;
35552;SDS011;21656;46.054;13.614;2023-02-17T08:26:40;88.22;;;41.67;;
35552;SDS011;21656;46.054;13.614;2023-02-17T08:29:05;88.13;;;45.20;;
35552;SDS011;21656;46.054;13.614;2023-02-17T08:31:32;84.05;;;41.92;;
35552;SDS011;21656;46.054;13.614;2023-02-17T08:33:59;96.90;;;43.35;;
35552;SDS011;21656;46.054;13.614;2023-02-17T08:36:26;86.60;;;42.80;;
35552;SDS011;21656;46.054;13.614;2023-02-17T08:38:53;83.25;;;41.67;;
35552;SDS011;21656;46.054;13.614;2023-02-17T08:41:23;92.32;;;40.85;;
35552;SDS011;21656;46.054;13.614;2023-02-17T08:44:14;83.32;;;41.78;;
35552;SDS011;21656;46.054;13.614;2023-02-17T08:46:41;84.35;;;41.63;;
35552;SDS011;21656;46.054;13.614;2023-02-17T08:49:07;81.45;;;42.53;;
35552;SDS011;21656;46.054;13.614;2023-02-17T08:51:33;80.70;;;41.63;;
35552;SDS011;21656;46.054;13.614;2023-02-17T08:54:00;89.55;;;42.60;;
35552;SDS011;21656;46.054;13.614;2023-02-17T08:56:26;84.13;;;40.72;;
35552;SDS011;21656;46.054;13.614;2023-02-17T08:58:53;86.18;;;41.50;;
35552;SDS011;21656;46.054;13.614;2023-02-17T09:01:19;83.07;;;40.30;;
35552;SDS011;21656;46.054;13.614;2023-02-17T09:03:47;82.85;;;42.55;;
35552;SDS011;21656;46.054;13.614;2023-02-17T09:06:14;86.10;;;41.08;;
35552;SDS011;21656;46.054;13.614;2023-02-17T09:08:40;81.88;;;41.67;;
35552;SDS011;21656;46.054;13.614;2023-02-17T09:11:07;88.22;;;41.00;;
35552;SDS011;21656;46.054;13.614;2023-02-17T09:13:33;83.82;;;39.58;;
35552;SDS011;21656;46.054;13.614;2023-02-17T09:16:00;79.80;;;40.88;;
35552;SDS011;21656;46.054;13.614;2023-02-17T09:18:25;79.70;;;40.03;;
35552;SDS011;21656;46.054;13.614;2023-02-17T09:20:51;80.05;;;39.38;;
35552;SDS011;21656;46.054;13.614;2023-02-17T09:23:16;76.72;;;38.67;;
35552;SDS011;21656;46.054;13.614;2023-02-17T09:25:42;80.85;;;40.92;;
35552;SDS011;21656;46.054;13.614;2023-02-17T09:28:08;80.45;;;37.88;;
35552;SDS011;21656;46.054;13.614;2023-02-17T09:30:34;83.68;;;40.88;;
35552;SDS011;21656;46.054;13.614;2023-02-17T09:33:00;75.90;;;38.50;;
35552;SDS011;21656;46.054;13.614;2023-02-17T09:35:26;72.95;;;38.65;;
35552;SDS011;21656;46.054;13.614;2023-02-17T09:37:52;76.10;;;38.50;;
35552;SDS011;21656;46.054;13.614;2023-02-17T09:40:23;70.03;;;36.92;;
35552;SDS011;21656;46.054;13.614;2023-02-17T09:43:09;74.65;;;38.50;;
35552;SDS011;21656;46.054;13.614;2023-02-17T09:45:41;77.43;;;39.90;;
35552;SDS011;21656;46.054;13.614;2023-02-17T09:48:11;71.70;;;38.80;;
35552;SDS011;21656;46.054;13.614;2023-02-17T09:50:43;78.95;;;40.28;;
35552;SDS011;21656;46.054;13.614;2023-02-17T09:56:32;73.97;;;37.80;;
35552;SDS011;21656;46.054;13.614;2023-02-17T09:59:01;74.43;;;37.83;;
35552;SDS011;21656;46.054;13.614;2023-02-17T10:01:32;76.63;;;38.30;;
35552;SDS011;21656;46.054;13.614;2023-02-17T10:04:13;79.88;;;40.28;;
35552;SDS011;21656;46.054;13.614;2023-02-17T10:07:13;79.00;;;39.45;;
35552;SDS011;21656;46.054;13.614;2023-02-17T10:09:41;78.57;;;41.67;;
35552;SDS011;21656;46.054;13.614;2023-02-17T10:12:17;83.10;;;41.55;;
35552;SDS011;21656;46.054;13.614;2023-02-17T10:14:48;86.15;;;39.83;;
35552;SDS011;21656;46.054;13.614;2023-02-17T10:18:03;81.15;;;42.03;;
35552;SDS011;21656;46.054;13.614;2023-02-17T10:20:13;76.82;;;39.53;;
35552;SDS011;21656;46.054;13.614;2023-02-17T10:22:44;71.80;;;37.60;;
35552;SDS011;21656;46.054;13.614;2023-02-17T10:25:15;67.35;;;37.20;;
35552;SDS011;21656;46.054;13.614;2023-02-17T10:28:04;75.20;;;38.80;;
35552;SDS011;21656;46.054;13.614;2023-02-17T10:33:00;80.07;;;39.75;;
35552;SDS011;21656;46.054;13.614;2023-02-17T10:35:48;81.60;;;39.88;;
35552;SDS011;21656;46.054;13.614;2023-02-17T10:40:55;82.57;;;39.13;;
35552;SDS011;21656;46.054;13.614;2023-02-17T10:43:25;78.28;;;38.88;;
35552;SDS011;21656;46.054;13.614;2023-02-17T10:45:54;86.28;;;40.30;;
35552;SDS011;21656;46.054;13.614;2023-02-17T10:48:23;79.90;;;40.50;;
35552;SDS011;21656;46.054;13.614;2023-02-17T10:50:53;84.32;;;41.72;;
35552;SDS011;21656;46.054;13.614;2023-02-17T10:53:24;86.10;;;43.70;;
35552;SDS011;21656;46.054;13.614;2023-02-17T10:55:59;88.90;;;44.03;;
35552;SDS011;21656;46.054;13.614;2023-02-17T10:58:50;83.30;;;40.97;;
35552;SDS011;21656;46.054;13.614;2023-02-17T11:01:22;82.97;;;42.33;;
35552;SDS011;21656;46.054;13.614;2023-02-17T11:04:08;92.25;;;43.67;;
35552;SDS011;21656;46.054;13.614;2023-02-17T11:06:47;75.45;;;40.00;;
35552;SDS011;21656;46.054;13.614;2023-02-17T11:09:25;80.53;;;41.65;;
35552;SDS011;21656;46.054;13.614;2023-02-17T11:14:53;95.30;;;42.50;;
35552;SDS011;21656;46.054;13.614;2023-02-17T11:17:30;97.72;;;42.95;;
35552;SDS011;21656;46.054;13.614;2023-02-17T11:20:03;97.93;;;42.03;;
35552;SDS011;21656;46.054;13.614;2023-02-17T11:22:59;99.95;;;42.88;;
35552;SDS011;21656;46.054;13.614;2023-02-17T11:25:32;101.40;;;42.05;;
35552;SDS011;21656;46.054;13.614;2023-02-17T11:28:24;98.50;;;41.70;;
35552;SDS011;21656;46.054;13.614;2023-02-17T11:30:49;97.18;;;41.05;;
35552;SDS011;21656;46.054;13.614;2023-02-17T11:33:23;95.97;;;41.65;;
35552;SDS011;21656;46.054;13.614;2023-02-17T11:35:54;108.15;;;41.65;;
35552;SDS011;21656;46.054;13.614;2023-02-17T11:38:23;97.32;;;42.90;;
35552;SDS011;21656;46.054;13.614;2023-02-17T11:41:06;103.30;;;43.72;;
35552;SDS011;21656;46.054;13.614;2023-02-17T11:43:32;110.95;;;46.13;;
35552;SDS011;21656;46.054;13.614;2023-02-17T11:46:43;113.10;;;46.80;;
35552;SDS011;21656;46.054;13.614;2023-02-17T11:57:32;114.28;;;43.10;;
35552;SDS011;21656;46.054;13.614;2023-02-17T12:05:21;110.85;;;40.67;;
35552;SDS011;21656;46.054;13.614;2023-02-17T12:08:04;108.68;;;44.20;;
35552;SDS011;21656;46.054;13.614;2023-02-17T12:14:13;121.80;;;42.33;;
35552;SDS011;21656;46.054;13.614;2023-02-17T12:21:46;111.13;;;41.90;;
35552;SDS011;21656;46.054;13.614;2023-02-17T12:35:26;111.20;;;41.67;;
35552;SDS011;21656;46.054;13.614;2023-02-17T12:38:03;114.75;;;43.83;;
35552;SDS011;21656;46.054;13.614;2023-02-17T12:43:41;109.55;;;41.53;;
35552;SDS011;21656;46.054;13.614;2023-02-17T12:46:12;103.13;;;40.28;;
35552;SDS011;21656;46.054;13.614;2023-02-17T12:48:52;103.38;;;41.25;;
35552;SDS011;21656;46.054;13.614;2023-02-17T12:51:29;106.18;;;39.60;;
35552;SDS011;21656;46.054;13.614;2023-02-17T12:59:19;95.95;;;38.75;;
35552;SDS011;21656;46.054;13.614;2023-02-17T13:02:32;100.03;;;39.67;;
35552;SDS011;21656;46.054;13.614;2023-02-17T13:04:40;102.47;;;40.03;;
35552;SDS011;21656;46.054;13.614;2023-02-17T13:09:36;108.15;;;43.38;;
35552;SDS011;21656;46.054;13.614;2023-02-17T13:17:20;94.57;;;38.08;;
35552;SDS011;21656;46.054;13.614;2023-02-17T13:19:45;101.43;;;40.83;;
35552;SDS011;21656;46.054;13.614;2023-02-17T13:22:20;105.60;;;42.58;;
35552;SDS011;21656;46.054;13.614;2023-02-17T13:24:51;105.90;;;39.70;;
35552;SDS011;21656;46.054;13.614;2023-02-17T13:29:57;99.35;;;39.50;;
35552;SDS011;21656;46.054;13.614;2023-02-17T13:32:28;101.07;;;41.15;;
35552;SDS011;21656;46.054;13.614;2023-02-17T13:35:39;94.07;;;40.00;;
35552;SDS011;21656;46.054;13.614;2023-02-17T13:37:47;108.28;;;43.53;;
35552;SDS011;21656;46.054;13.614;2023-02-17T13:42:50;102.65;;;40.40;;
35552;SDS011;21656;46.054;13.614;2023-02-17T13:47:52;101.40;;;40.40;;
35552;SDS011;21656;46.054;13.614;2023-02-17T13:52:54;91.20;;;38.72;;
35552;SDS011;21656;46.054;13.614;2023-02-17T13:55:20;95.47;;;39.88;;
35552;SDS011;21656;46.054;13.614;2023-02-17T13:57:50;91.80;;;40.10;;
35552;SDS011;21656;46.054;13.614;2023-02-17T14:00:22;98.03;;;44.83;;
35552;SDS011;21656;46.054;13.614;2023-02-17T14:02:52;111.88;;;52.42;;
35552;SDS011;21656;46.054;13.614;2023-02-17T14:07:57;92.25;;;43.65;;
35552;SDS011;21656;46.054;13.614;2023-02-17T14:10:28;101.07;;;44.05;;
35552;SDS011;21656;46.054;13.614;2023-02-17T14:12:53;104.13;;;42.53;;
35552;SDS011;21656;46.054;13.614;2023-02-17T14:15:21;108.05;;;45.30;;
35552;SDS011;21656;46.054;13.614;2023-02-17T14:17:50;118.63;;;49.88;;
35552;SDS011;21656;46.054;13.614;2023-02-17T14:23:12;108.88;;;44.70;;
35552;SDS011;21656;46.054;13.614;2023-02-17T14:25:39;121.25;;;51.22;;
35552;SDS011;21656;46.054;13.614;2023-02-17T14:28:17;128.27;;;49.28;;
35552;SDS011;21656;46.054;13.614;2023-02-17T14:30:43;116.60;;;47.47;;
35552;SDS011;21656;46.054;13.614;2023-02-17T14:38:39;115.25;;;48.63;;
35552;SDS011;21656;46.054;13.614;2023-02-17T14:41:05;118.18;;;47.92;;
35552;SDS011;21656;46.054;13.614;2023-02-17T14:43:33;114.85;;;46.92;;
35552;SDS011;21656;46.054;13.614;2023-02-17T14:45:59;118.88;;;48.35;;
35552;SDS011;21656;46.054;13.614;2023-02-17T14:48:25;109.95;;;46.03;;
35552;SDS011;21656;46.054;13.614;2023-02-17T14:50:50;124.30;;;47.15;;
35552;SDS011;21656;46.054;13.614;2023-02-17T14:53:33;107.10;;;45.22;;
35552;SDS011;21656;46.054;13.614;2023-02-17T14:56:08;114.93;;;44.63;;
35552;SDS011;21656;46.054;13.614;2023-02-17T14:58:34;108.43;;;45.55;;
35552;SDS011;21656;46.054;13.614;2023-02-17T15:01:00;113.38;;;46.92;;
35552;SDS011;21656;46.054;13.614;2023-02-17T15:03:25;123.82;;;51.85;;
35552;SDS011;21656;46.054;13.614;2023-02-17T15:05:51;144.57;;;60.70;;
35552;SDS011;21656;46.054;13.614;2023-02-17T15:08:17;146.10;;;62.17;;
35552;SDS011;21656;46.054;13.614;2023-02-17T15:10:46;164.35;;;68.32;;
35552;SDS011;21656;46.054;13.614;2023-02-17T15:13:16;107.70;;;46.50;;
35552;SDS011;21656;46.054;13.614;2023-02-17T15:15:43;118.40;;;49.85;;
35552;SDS011;21656;46.054;13.614;2023-02-17T15:18:11;197.27;;;81.15;;
35552;SDS011;21656;46.054;13.614;2023-02-17T15:20:38;157.15;;;69.75;;
35552;SDS011;21656;46.054;13.614;2023-02-17T15:23:09;160.30;;;65.68;;
35552;SDS011;21656;46.054;13.614;2023-02-17T15:25:36;135.35;;;63.30;;
35552;SDS011;21656;46.054;13.614;2023-02-17T15:28:02;137.38;;;61.42;;
35552;SDS011;21656;46.054;13.614;2023-02-17T15:30:28;121.25;;;53.08;;
35552;SDS011;21656;46.054;13.614;2023-02-17T15:32:53;146.05;;;62.83;;
35552;SDS011;21656;46.054;13.614;2023-02-17T15:35:23;123.82;;;53.88;;
35552;SDS011;21656;46.054;13.614;2023-02-17T15:37:50;121.38;;;55.83;;
35552;SDS011;21656;46.054;13.614;2023-02-17T15:40:17;123.22;;;50.53;;
35552;SDS011;21656;46.054;13.614;2023-02-17T15:42:45;120.88;;;51.38;;
35552;SDS011;21656;46.054;13.614;2023-02-17T15:45:24;138.80;;;59.58;;
35552;SDS011;21656;46.054;13.614;2023-02-17T15:47:50;132.45;;;54.88;;
35552;SDS011;21656;46.054;13.614;2023-02-17T15:50:21;136.13;;;63.10;;
35552;SDS011;21656;46.054;13.614;2023-02-17T15:52:50;142.32;;;68.55;;
35552;SDS011;21656;46.054;13.614;2023-02-17T15:55:18;122.95;;;56.67;;
35552;SDS011;21656;46.054;13.614;2023-02-17T15:57:46;125.05;;;53.85;;
35552;SDS011;21656;46.054;13.614;2023-02-17T16:00:16;130.43;;;50.65;;
35552;SDS011;21656;46.054;13.614;2023-02-17T16:02:42;136.90;;;56.30;;
35552;SDS011;21656;46.054;13.614;2023-02-17T16:05:09;142.95;;;61.00;;
35552;SDS011;21656;46.054;13.614;2023-02-17T16:07:36;143.95;;;58.53;;
35552;SDS011;21656;46.054;13.614;2023-02-17T16:10:02;138.32;;;56.75;;
35552;SDS011;21656;46.054;13.614;2023-02-17T16:12:28;131.35;;;54.92;;
35552;SDS011;21656;46.054;13.614;2023-02-17T16:14:54;122.50;;;51.65;;
35552;SDS011;21656;46.054;13.614;2023-02-17T16:17:21;134.93;;;54.17;;
35552;SDS011;21656;46.054;13.614;2023-02-17T16:19:47;128.60;;;51.75;;
35552;SDS011;21656;46.054;13.614;2023-02-17T16:22:12;126.18;;;50.92;;
35552;SDS011;21656;46.054;13.614;2023-02-17T16:24:38;144.13;;;53.30;;
35552;SDS011;21656;46.054;13.614;2023-02-17T16:27:04;134.27;;;54.55;;
35552;SDS011;21656;46.054;13.614;2023-02-17T16:29:34;137.65;;;53.03;;
35552;SDS011;21656;46.054;13.614;2023-02-17T16:31:59;127.57;;;52.65;;
35552;SDS011;21656;46.054;13.614;2023-02-17T16:34:25;178.57;;;80.25;;
35552;SDS011;21656;46.054;13.614;2023-02-17T16:36:51;178.23;;;73.45;;
35552;SDS011;21656;46.054;13.614;2023-02-17T16:39:20;153.48;;;64.75;;
35552;SDS011;21656;46.054;13.614;2023-02-17T16:41:46;156.00;;;64.47;;
35552;SDS011;21656;46.054;13.614;2023-02-17T16:44:13;143.80;;;64.50;;
35552;SDS011;21656;46.054;13.614;2023-02-17T16:46:45;131.18;;;56.67;;
35552;SDS011;21656;46.054;13.614;2023-02-17T16:49:19;138.32;;;57.58;;
35552;SDS011;21656;46.054;13.614;2023-02-17T16:51:56;225.82;;;96.10;;
35552;SDS011;21656;46.054;13.614;2023-02-17T16:54:25;200.00;;;85.68;;
35552;SDS011;21656;46.054;13.614;2023-02-17T16:56:50;201.38;;;87.10;;
35552;SDS011;21656;46.054;13.614;2023-02-17T16:59:18;176.93;;;75.05;;
35552;SDS011;21656;46.054;13.614;2023-02-17T17:01:45;144.38;;;62.05;;
35552;SDS011;21656;46.054;13.614;2023-02-17T17:04:11;148.75;;;62.80;;
35552;SDS011;21656;46.054;13.614;2023-02-17T17:06:41;178.07;;;77.00;;
35552;SDS011;21656;46.054;13.614;2023-02-17T17:09:10;162.95;;;72.03;;
35552;SDS011;21656;46.054;13.614;2023-02-17T17:11:39;140.07;;;59.28;;
35552;SDS011;21656;46.054;13.614;2023-02-17T17:14:05;131.07;;;56.30;;
35552;SDS011;21656;46.054;13.614;2023-02-17T17:16:31;120.22;;;50.72;;
35552;SDS011;21656;46.054;13.614;2023-02-17T17:18:58;124.85;;;51.92;;
35552;SDS011;21656;46.054;13.614;2023-02-17T17:21:25;130.93;;;52.33;;
35552;SDS011;21656;46.054;13.614;2023-02-17T17:23:51;129.63;;;58.47;;
35552;SDS011;21656;46.054;13.614;2023-02-17T17:26:19;157.73;;;65.15;;
35552;SDS011;21656;46.054;13.614;2023-02-17T17:28:45;165.60;;;71.82;;
35552;SDS011;21656;46.054;13.614;2023-02-17T17:31:14;163.68;;;72.38;;
35552;SDS011;21656;46.054;13.614;2023-02-17T17:33:40;161.20;;;68.15;;
35552;SDS011;21656;46.054;13.614;2023-02-17T17:36:14;133.25;;;56.33;;
35552;SDS011;21656;46.054;13.614;2023-02-17T17:38:45;122.40;;;50.80;;
35552;SDS011;21656;46.054;13.614;2023-02-17T17:41:11;121.82;;;52.15;;
35552;SDS011;21656;46.054;13.614;2023-02-17T17:43:37;116.30;;;47.95;;
35552;SDS011;21656;46.054;13.614;2023-02-17T17:46:19;111.82;;;48.55;;
35552;SDS011;21656;46.054;13.614;2023-02-17T17:48:48;106.07;;;45.28;;
35552;SDS011;21656;46.054;13.614;2023-02-17T17:51:14;105.45;;;43.65;;
35552;SDS011;21656;46.054;13.614;2023-02-17T17:53:42;107.15;;;45.00;;
35552;SDS011;21656;46.054;13.614;2023-02-17T17:56:15;111.40;;;45.47;;
35552;SDS011;21656;46.054;13.614;2023-02-17T17:58:42;111.97;;;46.20;;
35552;SDS011;21656;46.054;13.614;2023-02-17T18:01:08;116.07;;;47.97;;
35552;SDS011;21656;46.054;13.614;2023-02-17T18:03:35;160.50;;;63.33;;
35552;SDS011;21656;46.054;13.614;2023-02-17T18:06:00;171.57;;;62.17;;
35552;SDS011;21656;46.054;13.614;2023-02-17T18:08:26;131.85;;;58.03;;
35552;SDS011;21656;46.054;13.614;2023-02-17T18:10:52;138.45;;;58.58;;
35552;SDS011;21656;46.054;13.614;2023-02-17T18:13:18;137.57;;;57.97;;
35552;SDS011;21656;46.054;13.614;2023-02-17T18:15:44;140.57;;;58.55;;
35552;SDS011;21656;46.054;13.614;2023-02-17T18:18:10;137.32;;;58.13;;
35552;SDS011;21656;46.054;13.614;2023-02-17T18:20:37;139.45;;;59.33;;
35552;SDS011;21656;46.054;13.614;2023-02-17T18:23:03;135.32;;;57.95;;
35552;SDS011;21656;46.054;13.614;2023-02-17T18:25:28;137.50;;;58.90;;
35552;SDS011;21656;46.054;13.614;2023-02-17T18:27:54;141.50;;;56.15;;
35552;SDS011;21656;46.054;13.614;2023-02-17T18:30:20;139.25;;;56.83;;
35552;SDS011;21656;46.054;13.614;2023-02-17T18:32:47;144.32;;;60.85;;
35552;SDS011;21656;46.054;13.614;2023-02-17T18:35:14;139.02;;;56.47;;
35552;SDS011;21656;46.054;13.614;2023-02-17T18:37:40;134.70;;;56.03;;
35552;SDS011;21656;46.054;13.614;2023-02-17T18:40:07;134.35;;;60.05;;
35552;SDS011;21656;46.054;13.614;2023-02-17T18:42:38;140.70;;;57.38;;
35552;SDS011;21656;46.054;13.614;2023-02-17T18:45:05;141.50;;;60.05;;
35552;SDS011;21656;46.054;13.614;2023-02-17T18:47:32;160.23;;;65.72;;
35552;SDS011;21656;46.054;13.614;2023-02-17T18:50:00;166.05;;;61.53;;
35552;SDS011;21656;46.054;13.614;2023-02-17T18:52:25;133.45;;;54.45;;
35552;SDS011;21656;46.054;13.614;2023-02-17T18:54:51;134.65;;;55.90;;
35552;SDS011;21656;46.054;13.614;2023-02-17T18:57:16;132.50;;;53.55;;
35552;SDS011;21656;46.054;13.614;2023-02-17T18:59:42;135.93;;;55.30;;
35552;SDS011;21656;46.054;13.614;2023-02-17T19:02:08;127.38;;;53.40;;
35552;SDS011;21656;46.054;13.614;2023-02-17T19:04:35;136.70;;;56.53;;
35552;SDS011;21656;46.054;13.614;2023-02-17T19:07:01;136.43;;;56.33;;
35552;SDS011;21656;46.054;13.614;2023-02-17T19:09:40;143.68;;;56.75;;
35552;SDS011;21656;46.054;13.614;2023-02-17T19:12:09;141.70;;;55.58;;
35552;SDS011;21656;46.054;13.614;2023-02-17T19:14:38;133.10;;;55.35;;
35552;SDS011;21656;46.054;13.614;2023-02-17T19:17:05;144.05;;;59.30;;
35552;SDS011;21656;46.054;13.614;2023-02-17T19:19:34;152.93;;;59.42;;
35552;SDS011;21656;46.054;13.614;2023-02-17T19:22:00;147.45;;;57.97;;
35552;SDS011;21656;46.054;13.614;2023-02-17T19:24:27;140.90;;;55.33;;
35552;SDS011;21656;46.054;13.614;2023-02-17T19:26:53;135.68;;;54.63;;
35552;SDS011;21656;46.054;13.614;2023-02-17T19:29:18;132.15;;;53.40;;
35552;SDS011;21656;46.054;13.614;2023-02-17T19:31:44;141.32;;;55.85;;
35552;SDS011;21656;46.054;13.614;2023-02-17T19:34:09;143.35;;;57.10;;
35552;SDS011;21656;46.054;13.614;2023-02-17T19:36:35;135.02;;;53.17;;
35552;SDS011;21656;46.054;13.614;2023-02-17T19:39:00;133.18;;;52.70;;
35552;SDS011;21656;46.054;13.614;2023-02-17T19:41:26;123.90;;;51.13;;
35552;SDS011;21656;46.054;13.614;2023-02-17T19:43:51;135.38;;;54.28;;
35552;SDS011;21656;46.054;13.614;2023-02-17T19:46:17;140.52;;;56.17;;
35552;SDS011;21656;46.054;13.614;2023-02-17T19:48:46;142.48;;;57.42;;
35552;SDS011;21656;46.054;13.614;2023-02-17T19:51:12;144.05;;;56.88;;
35552;SDS011;21656;46.054;13.614;2023-02-17T19:53:39;140.90;;;57.13;;
35552;SDS011;21656;46.054;13.614;2023-02-17T19:56:14;136.80;;;56.67;;
35552;SDS011;21656;46.054;13.614;2023-02-17T19:58:42;138.45;;;57.63;;
35552;SDS011;21656;46.054;13.614;2023-02-17T20:01:12;138.20;;;55.58;;
35552;SDS011;21656;46.054;13.614;2023-02-17T20:03:40;162.65;;;65.32;;
35552;SDS011;21656;46.054;13.614;2023-02-17T20:06:10;149.88;;;60.55;;
35552;SDS011;21656;46.054;13.614;2023-02-17T20:08:40;142.05;;;55.38;;
35552;SDS011;21656;46.054;13.614;2023-02-17T20:11:06;148.23;;;59.60;;
35552;SDS011;21656;46.054;13.614;2023-02-17T20:13:33;144.05;;;55.85;;
35552;SDS011;21656;46.054;13.614;2023-02-17T20:16:00;137.30;;;52.90;;
35552;SDS011;21656;46.054;13.614;2023-02-17T20:18:31;134.32;;;53.92;;
35552;SDS011;21656;46.054;13.614;2023-02-17T20:20:58;148.13;;;56.08;;
35552;SDS011;21656;46.054;13.614;2023-02-17T20:23:23;132.25;;;52.35;;
35552;SDS011;21656;46.054;13.614;2023-02-17T20:25:49;144.63;;;59.63;;
35552;SDS011;21656;46.054;13.614;2023-02-17T20:28:14;138.18;;;53.83;;
35552;SDS011;21656;46.054;13.614;2023-02-17T20:30:40;131.88;;;53.50;;
35552;SDS011;21656;46.054;13.614;2023-02-17T20:33:06;137.07;;;57.28;;
35552;SDS011;21656;46.054;13.614;2023-02-17T20:35:32;133.45;;;54.95;;
35552;SDS011;21656;46.054;13.614;2023-02-17T20:37:59;158.07;;;62.35;;
35552;SDS011;21656;46.054;13.614;2023-02-17T20:40:25;154.95;;;59.75;;
35552;SDS011;21656;46.054;13.614;2023-02-17T20:42:50;139.65;;;56.28;;
35552;SDS011;21656;46.054;13.614;2023-02-17T20:45:16;148.63;;;59.53;;
35552;SDS011;21656;46.054;13.614;2023-02-17T20:47:41;147.90;;;58.83;;
35552;SDS011;21656;46.054;13.614;2023-02-17T20:50:09;151.13;;;61.55;;
35552;SDS011;21656;46.054;13.614;2023-02-17T20:52:38;145.18;;;58.22;;
35552;SDS011;21656;46.054;13.614;2023-02-17T20:55:03;146.68;;;60.75;;
35552;SDS011;21656;46.054;13.614;2023-02-17T20:57:29;141.30;;;58.13;;
35552;SDS011;21656;46.054;13.614;2023-02-17T20:59:55;138.85;;;55.50;;
35552;SDS011;21656;46.054;13.614;2023-02-17T21:02:20;143.95;;;55.80;;
35552;SDS011;21656;46.054;13.614;2023-02-17T21:04:46;140.38;;;54.80;;
35552;SDS011;21656;46.054;13.614;2023-02-17T21:07:11;143.10;;;53.97;;
35552;SDS011;21656;46.054;13.614;2023-02-17T21:09:37;136.02;;;54.65;;
35552;SDS011;21656;46.054;13.614;2023-02-17T21:12:02;136.75;;;54.70;;
35552;SDS011;21656;46.054;13.614;2023-02-17T21:14:28;135.93;;;53.35;;
35552;SDS011;21656;46.054;13.614;2023-02-17T21:16:53;133.68;;;55.00;;
35552;SDS011;21656;46.054;13.614;2023-02-17T21:19:19;131.70;;;54.75;;
35552;SDS011;21656;46.054;13.614;2023-02-17T21:21:44;133.60;;;55.72;;
35552;SDS011;21656;46.054;13.614;2023-02-17T21:24:10;130.57;;;53.10;;
35552;SDS011;21656;46.054;13.614;2023-02-17T21:26:36;142.10;;;56.08;;
35552;SDS011;21656;46.054;13.614;2023-02-17T21:29:02;141.63;;;56.58;;
35552;SDS011;21656;46.054;13.614;2023-02-17T21:31:27;131.82;;;54.03;;
35552;SDS011;21656;46.054;13.614;2023-02-17T21:33:53;133.98;;;55.42;;
35552;SDS011;21656;46.054;13.614;2023-02-17T21:36:19;133.65;;;54.53;;
35552;SDS011;21656;46.054;13.614;2023-02-17T21:38:45;137.35;;;55.60;;
35552;SDS011;21656;46.054;13.614;2023-02-17T21:41:12;140.98;;;55.95;;
35552;SDS011;21656;46.054;13.614;2023-02-17T21:43:41;138.50;;;56.58;;
35552;SDS011;21656;46.054;13.614;2023-02-17T21:46:27;139.80;;;56.35;;
35552;SDS011;21656;46.054;13.614;2023-02-17T21:48:54;142.32;;;53.92;;
35552;SDS011;21656;46.054;13.614;2023-02-17T21:51:21;135.63;;;53.35;;
35552;SDS011;21656;46.054;13.614;2023-02-17T21:53:46;138.13;;;54.33;;
35552;SDS011;21656;46.054;13.614;2023-02-17T21:56:12;139.20;;;55.03;;
35552;SDS011;21656;46.054;13.614;2023-02-17T21:58:37;135.55;;;55.40;;
35552;SDS011;21656;46.054;13.614;2023-02-17T22:01:03;126.68;;;53.22;;
